createdAt,value
2016-12-26T00:00:56.853Z,961.61
2016-12-26T00:01:56.840Z,961.68
2016-12-26T00:02:56.826Z,961.69
2016-12-26T00:03:56.813Z,961.75
2016-12-26T00:04:56.801Z,961.77
2016-12-26T00:05:56.788Z,961.74
2016-12-26T00:06:56.776Z,961.78
2016-12-26T00:07:56.763Z,961.75
2016-12-26T00:08:56.751Z,961.79
2016-12-26T00:09:56.738Z,961.71
2016-12-26T00:10:56.724Z,961.72
2016-12-26T00:11:56.711Z,961.71
2016-12-26T00:12:56.699Z,961.69
2016-12-26T00:13:56.685Z,961.71
2016-12-26T00:14:56.671Z,961.74
2016-12-26T00:15:56.660Z,961.69
2016-12-26T00:16:56.647Z,961.75
2016-12-26T00:17:56.635Z,961.74
2016-12-26T00:18:56.633Z,961.72
2016-12-26T00:19:56.609Z,961.82
2016-12-26T00:20:56.598Z,961.79
2016-12-26T00:21:56.583Z,961.87
2016-12-26T00:22:56.570Z,961.82
2016-12-26T00:23:56.560Z,961.81
2016-12-26T00:24:56.545Z,961.84
2016-12-26T00:25:56.531Z,961.9
2016-12-26T00:26:56.518Z,961.85
2016-12-26T00:27:56.507Z,961.84
2016-12-26T00:28:56.493Z,961.79
2016-12-26T00:29:56.480Z,961.86
2016-12-26T00:30:56.467Z,961.9
2016-12-26T00:31:56.454Z,961.88
2016-12-26T00:32:56.441Z,961.81
2016-12-26T00:33:56.429Z,961.85
2016-12-26T00:34:56.416Z,961.76
2016-12-26T00:35:56.403Z,961.81
2016-12-26T00:36:56.394Z,961.75
2016-12-26T00:37:56.376Z,961.84
2016-12-26T00:38:56.365Z,961.79
2016-12-26T00:39:56.352Z,961.81
2016-12-26T00:40:56.341Z,961.81
2016-12-26T00:41:56.325Z,961.81
2016-12-26T00:42:56.312Z,961.75
2016-12-26T00:43:56.300Z,961.77
2016-12-26T00:44:56.287Z,961.83
2016-12-26T00:45:56.273Z,961.78
2016-12-26T00:46:56.261Z,961.73
2016-12-26T00:47:56.247Z,961.7
2016-12-26T00:48:56.234Z,961.75
2016-12-26T00:49:56.222Z,961.76
2016-12-26T00:50:56.209Z,961.79
2016-12-26T00:51:56.196Z,961.8
2016-12-26T00:52:56.184Z,961.87
2016-12-26T00:53:56.170Z,961.84
2016-12-26T00:54:56.159Z,961.83
2016-12-26T00:55:56.144Z,961.91
2016-12-26T00:56:56.131Z,961.98
2016-12-26T00:57:56.119Z,961.94
2016-12-26T00:58:56.106Z,961.96
2016-12-26T00:59:56.093Z,961.98
2016-12-26T01:00:56.081Z,961.99
2016-12-26T01:01:56.068Z,961.97
2016-12-26T01:02:56.055Z,961.95
2016-12-26T01:03:56.042Z,961.98
2016-12-26T01:04:56.029Z,961.94
2016-12-26T01:05:56.017Z,961.91
2016-12-26T01:06:56.002Z,961.88
2016-12-26T01:07:55.990Z,961.88
2016-12-26T01:08:55.978Z,961.87
2016-12-26T01:09:55.964Z,961.89
2016-12-26T01:10:55.952Z,961.95
2016-12-26T01:11:55.939Z,961.97
2016-12-26T01:12:55.927Z,961.94
2016-12-26T01:13:55.913Z,961.98
2016-12-26T01:14:55.900Z,961.99
2016-12-26T01:15:55.887Z,962.01
2016-12-26T01:16:55.875Z,962.06
2016-12-26T01:17:55.861Z,961.97
2016-12-26T01:18:55.848Z,961.96
2016-12-26T01:19:55.837Z,962
2016-12-26T01:20:55.822Z,961.98
2016-12-26T01:21:55.810Z,962
2016-12-26T01:22:55.798Z,962.06
2016-12-26T01:23:55.784Z,962.03
2016-12-26T01:24:55.771Z,962.11
2016-12-26T01:25:55.758Z,962.08
2016-12-26T01:26:55.746Z,962.03
2016-12-26T01:27:55.732Z,962.08
2016-12-26T01:28:55.720Z,962.04
2016-12-26T01:29:55.707Z,962.03
2016-12-26T01:30:55.693Z,962.04
2016-12-26T01:31:55.680Z,962.05
2016-12-26T01:32:55.668Z,962.05
2016-12-26T01:33:55.656Z,962.02
2016-12-26T01:34:55.642Z,962.03
2016-12-26T01:35:55.629Z,961.96
2016-12-26T01:36:55.616Z,961.93
2016-12-26T01:37:55.604Z,961.9
2016-12-26T01:38:55.591Z,961.83
2016-12-26T01:39:55.579Z,961.88
2016-12-26T01:40:55.566Z,961.87
2016-12-26T01:41:55.553Z,961.87
2016-12-26T01:42:55.540Z,961.85
2016-12-26T01:43:55.527Z,961.88
2016-12-26T01:44:55.514Z,961.93
2016-12-26T01:45:55.502Z,961.9
2016-12-26T01:46:55.489Z,961.88
2016-12-26T01:47:55.476Z,961.88
2016-12-26T01:48:55.463Z,961.92
2016-12-26T01:49:55.450Z,961.99
2016-12-26T01:50:55.437Z,961.95
2016-12-26T01:51:55.427Z,961.91
2016-12-26T01:52:55.411Z,961.89
2016-12-26T01:53:55.398Z,961.9
2016-12-26T01:54:55.385Z,961.88
2016-12-26T01:55:55.372Z,961.85
2016-12-26T01:56:55.361Z,961.94
2016-12-26T01:57:55.346Z,961.85
2016-12-26T01:58:55.334Z,961.86
2016-12-26T01:59:55.322Z,961.88
2016-12-26T02:00:55.308Z,961.95
2016-12-26T02:01:55.296Z,961.89
2016-12-26T02:02:55.282Z,961.84
2016-12-26T02:03:55.271Z,961.88
2016-12-26T02:04:55.257Z,961.94
2016-12-26T02:05:55.244Z,961.85
2016-12-26T02:06:55.232Z,961.93
2016-12-26T02:07:55.219Z,961.95
2016-12-26T02:08:55.206Z,961.92
2016-12-26T02:09:55.192Z,961.93
2016-12-26T02:10:55.181Z,961.96
2016-12-26T02:11:55.167Z,962
2016-12-26T02:12:55.155Z,961.99
2016-12-26T02:13:55.140Z,961.99
2016-12-26T02:14:55.128Z,962
2016-12-26T02:15:55.115Z,962.03
2016-12-26T02:16:55.103Z,962.02
2016-12-26T02:17:55.090Z,961.97
2016-12-26T02:18:55.078Z,961.97
2016-12-26T02:19:55.064Z,961.9
2016-12-26T02:20:55.052Z,961.91
2016-12-26T02:21:55.038Z,961.93
2016-12-26T02:22:55.025Z,961.89
2016-12-26T02:23:55.012Z,961.93
2016-12-26T02:24:55.000Z,961.91
2016-12-26T02:25:54.987Z,961.85
2016-12-26T02:26:54.974Z,961.92
2016-12-26T02:27:54.960Z,961.91
2016-12-26T02:28:54.947Z,961.85
2016-12-26T02:29:54.936Z,961.87
2016-12-26T02:30:54.920Z,961.81
2016-12-26T02:31:54.910Z,961.84
2016-12-26T02:32:54.895Z,961.84
2016-12-26T02:33:56.361Z,961.87
2016-12-26T02:34:54.870Z,961.87
2016-12-26T02:35:54.855Z,961.89
2016-12-26T02:36:54.850Z,961.93
2016-12-26T02:37:54.830Z,961.87
2016-12-26T02:38:54.818Z,961.91
2016-12-26T02:39:54.804Z,961.93
2016-12-26T02:40:54.793Z,961.93
2016-12-26T02:41:54.778Z,961.82
2016-12-26T02:42:54.767Z,961.95
2016-12-26T02:43:54.752Z,961.94
2016-12-26T02:44:54.739Z,961.98
2016-12-26T02:45:54.725Z,961.94
2016-12-26T02:46:54.714Z,961.96
2016-12-26T02:47:54.701Z,961.93
2016-12-26T02:48:54.687Z,961.94
2016-12-26T02:49:54.674Z,961.96
2016-12-26T02:50:54.662Z,961.93
2016-12-26T02:51:54.648Z,961.85
2016-12-26T02:52:54.636Z,961.83
2016-12-26T02:53:54.621Z,961.85
2016-12-26T02:54:54.610Z,961.82
2016-12-26T02:55:54.597Z,961.76
2016-12-26T02:56:54.582Z,961.79
2016-12-26T02:57:54.570Z,961.83
2016-12-26T02:58:54.558Z,961.84
2016-12-26T02:59:54.544Z,961.74
2016-12-26T03:00:54.532Z,961.77
2016-12-26T03:01:54.520Z,961.76
2016-12-26T03:02:54.506Z,961.71
2016-12-26T03:03:54.493Z,961.66
2016-12-26T03:04:54.480Z,961.65
2016-12-26T03:05:54.467Z,961.73
2016-12-26T03:06:54.455Z,961.72
2016-12-26T03:07:54.441Z,961.75
2016-12-26T03:08:54.429Z,961.74
2016-12-26T03:09:54.416Z,961.77
2016-12-26T03:10:54.403Z,961.79
2016-12-26T03:11:54.391Z,961.8
2016-12-26T03:12:54.376Z,961.78
2016-12-26T03:13:54.365Z,961.76
2016-12-26T03:14:54.352Z,961.77
2016-12-26T03:15:54.339Z,961.71
2016-12-26T03:16:54.327Z,961.7
2016-12-26T03:17:54.314Z,961.71
2016-12-26T03:18:54.300Z,961.69
2016-12-26T03:19:54.288Z,961.66
2016-12-26T03:20:54.276Z,961.64
2016-12-26T03:21:54.669Z,961.62
2016-12-26T03:22:54.251Z,961.62
2016-12-26T03:23:54.398Z,961.58
2016-12-26T03:24:54.223Z,961.6
2016-12-26T03:25:54.211Z,961.62
2016-12-26T03:26:54.467Z,961.67
2016-12-26T03:27:54.186Z,961.67
2016-12-26T03:28:54.173Z,961.62
2016-12-26T03:29:54.294Z,961.57
2016-12-26T03:30:54.148Z,961.59
2016-12-26T03:31:54.135Z,961.59
2016-12-26T03:32:54.121Z,961.6
2016-12-26T03:33:54.109Z,961.55
2016-12-26T03:34:54.096Z,961.53
2016-12-26T03:35:54.082Z,961.55
2016-12-26T03:36:54.342Z,961.54
2016-12-26T03:37:54.057Z,961.56
2016-12-26T03:38:54.045Z,961.58
2016-12-26T03:39:54.047Z,961.5
2016-12-26T03:40:54.019Z,961.53
2016-12-26T03:41:54.007Z,961.55
2016-12-26T03:42:54.135Z,961.59
2016-12-26T03:43:53.980Z,961.48
2016-12-26T03:44:53.968Z,961.53
2016-12-26T03:45:53.955Z,961.51
2016-12-26T03:46:53.943Z,961.52
2016-12-26T03:47:54.083Z,961.59
2016-12-26T03:48:53.917Z,961.57
2016-12-26T03:49:53.905Z,961.58
2016-12-26T03:50:54.037Z,961.57
2016-12-26T03:51:53.881Z,961.63
2016-12-26T03:52:53.866Z,961.6
2016-12-26T03:53:53.988Z,961.63
2016-12-26T03:54:53.841Z,961.64
2016-12-26T03:55:53.828Z,961.6
2016-12-26T03:56:53.931Z,961.65
2016-12-26T03:57:53.804Z,961.64
2016-12-26T03:58:53.789Z,961.59
2016-12-26T03:59:53.930Z,961.52
2016-12-26T04:00:53.765Z,961.52
2016-12-26T04:01:53.751Z,961.57
2016-12-26T04:02:53.739Z,961.59
2016-12-26T04:03:53.727Z,961.57
2016-12-26T04:04:53.714Z,961.54
2016-12-26T04:05:53.700Z,961.5
2016-12-26T04:06:53.848Z,961.48
2016-12-26T04:07:53.675Z,961.43
2016-12-26T04:08:53.662Z,961.48
2016-12-26T04:09:53.788Z,961.47
2016-12-26T04:10:53.636Z,961.51
2016-12-26T04:11:53.625Z,961.45
2016-12-26T04:12:53.738Z,961.48
2016-12-26T04:13:53.598Z,961.45
2016-12-26T04:14:53.586Z,961.46
2016-12-26T04:15:53.573Z,961.52
2016-12-26T04:16:53.560Z,961.59
2016-12-26T04:17:53.548Z,961.57
2016-12-26T04:18:53.534Z,961.55
2016-12-26T04:19:53.521Z,961.57
2016-12-26T04:20:53.509Z,961.59
2016-12-26T04:21:53.496Z,961.6
2016-12-26T04:22:53.485Z,961.59
2016-12-26T04:23:53.469Z,961.57
2016-12-26T04:24:53.458Z,961.63
2016-12-26T04:25:53.611Z,961.62
2016-12-26T04:26:53.433Z,961.64
2016-12-26T04:27:53.419Z,961.6
2016-12-26T04:28:53.543Z,961.63
2016-12-26T04:29:53.395Z,961.67
2016-12-26T04:30:53.381Z,961.57
2016-12-26T04:31:53.516Z,961.57
2016-12-26T04:32:53.357Z,961.51
2016-12-26T04:33:53.346Z,961.49
2016-12-26T04:34:53.331Z,961.52
2016-12-26T04:35:53.360Z,961.42
2016-12-26T04:36:53.440Z,961.37
2016-12-26T04:37:53.294Z,961.44
2016-12-26T04:38:53.281Z,961.46
2016-12-26T04:39:53.422Z,961.43
2016-12-26T04:40:53.256Z,961.38
2016-12-26T04:41:53.243Z,961.39
2016-12-26T04:42:53.436Z,961.35
2016-12-26T04:43:53.217Z,961.34
2016-12-26T04:44:53.206Z,961.29
2016-12-26T04:45:53.312Z,961.33
2016-12-26T04:46:53.179Z,961.29
2016-12-26T04:47:53.454Z,961.26
2016-12-26T04:48:53.153Z,961.26
2016-12-26T04:49:53.142Z,961.3
2016-12-26T04:50:53.139Z,961.27
2016-12-26T04:51:53.117Z,961.22
2016-12-26T04:52:53.104Z,961.2
2016-12-26T04:53:53.228Z,961.25
2016-12-26T04:54:53.079Z,961.19
2016-12-26T04:55:53.066Z,961.19
2016-12-26T04:56:53.208Z,961.16
2016-12-26T04:57:53.041Z,961.17
2016-12-26T04:58:53.028Z,961.19
2016-12-26T04:59:53.191Z,961.17
2016-12-26T05:00:53.003Z,961.2
2016-12-26T05:01:52.991Z,961.25
2016-12-26T05:02:53.119Z,961.25
2016-12-26T05:03:52.964Z,961.25
2016-12-26T05:04:52.952Z,961.24
2016-12-26T05:05:52.939Z,961.24
2016-12-26T05:06:52.927Z,961.17
2016-12-26T05:07:52.914Z,961.2
2016-12-26T05:08:52.901Z,961.13
2016-12-26T05:09:52.891Z,961.09
2016-12-26T05:10:52.876Z,961.08
2016-12-26T05:11:52.863Z,961.05
2016-12-26T05:12:52.849Z,961.04
2016-12-26T05:13:52.837Z,961.01
2016-12-26T05:14:52.825Z,960.96
2016-12-26T05:15:52.813Z,960.95
2016-12-26T05:16:52.969Z,960.93
2016-12-26T05:17:52.788Z,960.94
2016-12-26T05:18:52.774Z,960.93
2016-12-26T05:19:52.898Z,960.77
2016-12-26T05:20:52.750Z,960.88
2016-12-26T05:21:52.736Z,960.81
2016-12-26T05:22:52.724Z,960.85
2016-12-26T05:23:52.710Z,960.92
2016-12-26T05:24:52.816Z,960.81
2016-12-26T05:25:52.685Z,960.86
2016-12-26T05:26:52.673Z,960.89
2016-12-26T05:27:52.659Z,960.89
2016-12-26T05:28:52.648Z,960.79
2016-12-26T05:29:52.634Z,960.86
2016-12-26T05:30:52.622Z,960.85
2016-12-26T05:31:52.609Z,960.77
2016-12-26T05:32:52.595Z,960.83
2016-12-26T05:33:52.584Z,960.79
2016-12-26T05:34:52.571Z,960.85
2016-12-26T05:35:52.558Z,960.84
2016-12-26T05:36:52.545Z,960.83
2016-12-26T05:37:52.669Z,960.83
2016-12-26T05:38:52.520Z,960.88
2016-12-26T05:39:52.508Z,960.87
2016-12-26T05:40:52.493Z,960.88
2016-12-26T05:41:52.482Z,960.88
2016-12-26T05:42:52.470Z,960.95
2016-12-26T05:43:52.456Z,960.91
2016-12-26T05:44:52.442Z,960.92
2016-12-26T05:45:52.430Z,960.78
2016-12-26T05:46:52.417Z,960.85
2016-12-26T05:47:52.405Z,960.93
2016-12-26T05:48:52.393Z,960.89
2016-12-26T05:49:52.380Z,960.85
2016-12-26T05:50:52.368Z,960.81
2016-12-26T05:51:52.355Z,960.86
2016-12-26T05:52:52.342Z,960.77
2016-12-26T05:53:52.331Z,960.84
2016-12-26T05:54:52.321Z,960.85
2016-12-26T05:55:52.303Z,960.85
2016-12-26T05:56:52.290Z,960.81
2016-12-26T05:57:52.279Z,960.92
2016-12-26T05:58:52.264Z,960.89
2016-12-26T05:59:52.252Z,960.84
2016-12-26T06:00:52.240Z,960.79
2016-12-26T06:01:52.227Z,960.9
2016-12-26T06:02:52.213Z,960.88
2016-12-26T06:03:52.201Z,960.81
2016-12-26T06:04:52.223Z,960.83
2016-12-26T06:05:52.174Z,960.87
2016-12-26T06:06:52.164Z,960.85
2016-12-26T06:07:52.150Z,960.83
2016-12-26T06:08:52.138Z,960.86
2016-12-26T06:09:52.126Z,960.84
2016-12-26T06:10:52.113Z,960.93
2016-12-26T06:11:52.099Z,960.87
2016-12-26T06:12:52.089Z,960.9
2016-12-26T06:13:52.073Z,960.9
2016-12-26T06:14:52.061Z,960.94
2016-12-26T06:15:52.049Z,960.92
2016-12-26T06:16:52.034Z,960.88
2016-12-26T06:17:52.022Z,960.95
2016-12-26T06:18:52.010Z,960.99
2016-12-26T06:19:51.996Z,960.94
2016-12-26T06:20:51.984Z,960.93
2016-12-26T06:21:51.972Z,960.9
2016-12-26T06:22:51.960Z,960.82
2016-12-26T06:23:51.948Z,960.84
2016-12-26T06:24:51.934Z,960.83
2016-12-26T06:25:51.922Z,960.85
2016-12-26T06:26:51.910Z,960.79
2016-12-26T06:27:51.896Z,960.82
2016-12-26T06:28:51.883Z,960.92
2016-12-26T06:29:51.870Z,960.91
2016-12-26T06:30:51.858Z,960.87
2016-12-26T06:31:51.844Z,960.85
2016-12-26T06:32:51.831Z,960.81
2016-12-26T06:33:51.824Z,960.9
2016-12-26T06:34:51.805Z,960.93
2016-12-26T06:35:51.793Z,960.85
2016-12-26T06:36:51.780Z,960.85
2016-12-26T06:37:51.768Z,960.94
2016-12-26T06:38:51.755Z,960.94
2016-12-26T06:39:51.743Z,960.99
2016-12-26T06:40:51.730Z,960.94
2016-12-26T06:41:51.717Z,960.98
2016-12-26T06:42:51.702Z,961
2016-12-26T06:43:51.690Z,960.97
2016-12-26T06:44:51.680Z,960.98
2016-12-26T06:45:51.663Z,961.05
2016-12-26T06:46:51.652Z,961
2016-12-26T06:47:51.640Z,960.99
2016-12-26T06:48:51.626Z,961.02
2016-12-26T06:49:51.614Z,960.97
2016-12-26T06:50:51.601Z,961.03
2016-12-26T06:51:51.594Z,960.9
2016-12-26T06:52:51.575Z,960.93
2016-12-26T06:53:51.562Z,960.91
2016-12-26T06:54:51.550Z,960.94
2016-12-26T06:55:51.537Z,960.89
2016-12-26T06:56:51.523Z,960.88
2016-12-26T06:57:51.511Z,960.94
2016-12-26T06:58:51.499Z,961.01
2016-12-26T06:59:51.485Z,961.01
2016-12-26T07:00:51.473Z,961.03
2016-12-26T07:01:51.460Z,961.08
2016-12-26T07:02:51.447Z,961.08
2016-12-26T07:03:51.435Z,961.1
2016-12-26T07:04:51.421Z,961.05
2016-12-26T07:05:51.408Z,961.02
2016-12-26T07:06:51.397Z,961.04
2016-12-26T07:07:51.383Z,961.03
2016-12-26T07:08:51.371Z,961.04
2016-12-26T07:09:51.358Z,961.04
2016-12-26T07:10:51.345Z,961.07
2016-12-26T07:11:51.332Z,961.09
2016-12-26T07:12:51.319Z,961.04
2016-12-26T07:13:51.309Z,961.12
2016-12-26T07:14:51.293Z,961.08
2016-12-26T07:15:51.282Z,961.08
2016-12-26T07:16:51.268Z,961.05
2016-12-26T07:17:51.255Z,961.1
2016-12-26T07:18:51.241Z,961.15
2016-12-26T07:19:51.230Z,961.08
2016-12-26T07:20:51.218Z,961.08
2016-12-26T07:21:51.203Z,961.14
2016-12-26T07:22:51.191Z,961.16
2016-12-26T07:23:51.177Z,961.17
2016-12-26T07:24:51.164Z,961.14
2016-12-26T07:25:51.153Z,961.08
2016-12-26T07:26:51.140Z,961.05
2016-12-26T07:27:51.127Z,961.09
2016-12-26T07:28:51.115Z,961.04
2016-12-26T07:29:51.100Z,961.04
2016-12-26T07:30:51.089Z,960.97
2016-12-26T07:31:51.076Z,960.99
2016-12-26T07:32:51.064Z,960.96
2016-12-26T07:33:51.050Z,961.01
2016-12-26T07:34:51.038Z,961.01
2016-12-26T07:35:51.025Z,961.09
2016-12-26T07:36:51.012Z,961.12
2016-12-26T07:37:50.999Z,961.09
2016-12-26T07:38:50.988Z,961.08
2016-12-26T07:39:50.973Z,961.03
2016-12-26T07:40:50.961Z,961.07
2016-12-26T07:41:50.948Z,961.03
2016-12-26T07:42:50.936Z,961.08
2016-12-26T07:43:50.923Z,961.06
2016-12-26T07:44:50.909Z,961.09
2016-12-26T07:45:50.897Z,961.05
2016-12-26T07:46:50.885Z,961.05
2016-12-26T07:47:50.872Z,961.1
2016-12-26T07:48:50.859Z,961.06
2016-12-26T07:49:50.845Z,961.06
2016-12-26T07:50:50.835Z,961.09
2016-12-26T07:51:50.820Z,960.98
2016-12-26T07:52:50.807Z,961
2016-12-26T07:53:50.795Z,961.01
2016-12-26T07:54:50.783Z,961.07
2016-12-26T07:55:50.770Z,961.04
2016-12-26T07:56:50.756Z,961.04
2016-12-26T07:57:50.744Z,961.04
2016-12-26T07:58:50.733Z,961.09
2016-12-26T07:59:50.720Z,961.09
2016-12-26T08:00:50.708Z,961.11
2016-12-26T08:01:50.696Z,961.06
2016-12-26T08:02:50.682Z,961.17
2016-12-26T08:03:50.670Z,961.08
2016-12-26T08:04:50.656Z,961.1
2016-12-26T08:05:50.645Z,961.02
2016-12-26T08:06:50.632Z,961.09
2016-12-26T08:07:50.619Z,961.03
2016-12-26T08:08:50.607Z,961.03
2016-12-26T08:09:50.593Z,960.99
2016-12-26T08:10:50.582Z,961.01
2016-12-26T08:11:50.568Z,960.94
2016-12-26T08:12:50.557Z,960.95
2016-12-26T08:13:50.543Z,960.89
2016-12-26T08:14:50.531Z,960.86
2016-12-26T08:15:50.519Z,960.91
2016-12-26T08:16:50.505Z,960.86
2016-12-26T08:17:50.493Z,960.83
2016-12-26T08:18:50.482Z,960.87
2016-12-26T08:19:50.468Z,960.82
2016-12-26T08:20:50.455Z,960.85
2016-12-26T08:21:50.443Z,960.78
2016-12-26T08:22:50.430Z,960.86
2016-12-26T08:23:50.418Z,960.83
2016-12-26T08:24:50.404Z,960.86
2016-12-26T08:25:50.392Z,960.87
2016-12-26T08:26:50.381Z,960.89
2016-12-26T08:27:50.368Z,960.88
2016-12-26T08:28:50.354Z,960.88
2016-12-26T08:29:50.344Z,960.9
2016-12-26T08:30:50.331Z,960.91
2016-12-26T08:31:50.318Z,960.92
2016-12-26T08:32:50.305Z,960.93
2016-12-26T08:33:50.294Z,960.96
2016-12-26T08:34:50.280Z,960.92
2016-12-26T08:35:50.269Z,960.95
2016-12-26T08:36:50.256Z,960.99
2016-12-26T08:37:50.244Z,960.95
2016-12-26T08:38:50.233Z,961.02
2016-12-26T08:39:50.218Z,960.95
2016-12-26T08:40:50.207Z,961.01
2016-12-26T08:41:50.195Z,961
2016-12-26T08:42:50.181Z,961.01
2016-12-26T08:43:50.170Z,961.03
2016-12-26T08:44:50.158Z,961.06
2016-12-26T08:45:50.145Z,961
2016-12-26T08:46:50.132Z,961.2
2016-12-26T08:47:50.122Z,961.16
2016-12-26T08:48:50.108Z,961.13
2016-12-26T08:49:50.095Z,961.12
2016-12-26T08:50:50.084Z,961.2
2016-12-26T08:51:50.070Z,961.18
2016-12-26T08:52:50.060Z,961.23
2016-12-26T08:53:50.047Z,961.25
2016-12-26T08:54:50.034Z,961.25
2016-12-26T08:55:50.023Z,961.22
2016-12-26T08:56:50.010Z,961.17
2016-12-26T08:57:49.997Z,961.19
2016-12-26T08:58:49.986Z,961.31
2016-12-26T08:59:49.974Z,961.25
2016-12-26T09:00:49.962Z,961.18
2016-12-26T09:01:49.949Z,961.17
2016-12-26T09:02:49.937Z,961.09
2016-12-26T09:03:49.926Z,961.11
2016-12-26T09:04:49.913Z,961.1
2016-12-26T09:05:49.899Z,961.12
2016-12-26T09:06:49.889Z,961.14
2016-12-26T09:07:49.877Z,961.1
2016-12-26T09:08:49.865Z,960.98
2016-12-26T09:09:49.852Z,961.04
2016-12-26T09:10:49.840Z,961.1
2016-12-26T09:11:49.829Z,961.13
2016-12-26T09:12:49.815Z,961.1
2016-12-26T09:13:49.804Z,961.14
2016-12-26T09:14:49.793Z,961.09
2016-12-26T09:15:49.778Z,961.08
2016-12-26T09:16:49.768Z,961.12
2016-12-26T09:17:49.756Z,961.11
2016-12-26T09:18:49.744Z,961.19
2016-12-26T09:19:49.731Z,961.22
2016-12-26T09:20:49.720Z,961.19
2016-12-26T09:21:49.708Z,961.14
2016-12-26T09:22:49.696Z,961.08
2016-12-26T09:23:49.684Z,961.03
2016-12-26T09:24:49.673Z,961.07
2016-12-26T09:25:49.660Z,961.06
2016-12-26T09:26:49.647Z,961.14
2016-12-26T09:27:49.636Z,961.05
2016-12-26T09:28:49.623Z,961.03
2016-12-26T09:29:49.613Z,961.04
2016-12-26T09:30:49.601Z,961.03
2016-12-26T09:31:49.588Z,961.12
2016-12-26T09:32:49.575Z,961.11
2016-12-26T09:33:49.563Z,961.1
2016-12-26T09:34:49.552Z,961.11
2016-12-26T09:35:49.541Z,961.09
2016-12-26T09:36:49.530Z,961.09
2016-12-26T09:37:49.517Z,961.06
2016-12-26T09:38:49.504Z,961.06
2016-12-26T09:39:49.494Z,961.08
2016-12-26T09:40:49.482Z,960.99
2016-12-26T09:41:49.470Z,960.99
2016-12-26T09:42:49.458Z,961
2016-12-26T09:43:49.447Z,961
2016-12-26T09:44:49.433Z,961.09
2016-12-26T09:45:49.422Z,961.08
2016-12-26T09:46:49.411Z,961.06
2016-12-26T09:47:49.400Z,961.06
2016-12-26T09:48:49.388Z,961.13
2016-12-26T09:49:49.377Z,961.13
2016-12-26T09:50:49.365Z,961.09
2016-12-26T09:51:49.353Z,961.08
2016-12-26T09:52:49.342Z,961.16
2016-12-26T09:53:49.329Z,961.11
2016-12-26T09:54:49.318Z,961.07
2016-12-26T09:55:49.305Z,961.06
2016-12-26T09:56:49.295Z,961.05
2016-12-26T09:57:49.282Z,961.13
2016-12-26T09:58:49.272Z,961.12
2016-12-26T09:59:49.259Z,961.1
2016-12-26T10:00:49.248Z,961.17
2016-12-26T10:01:49.237Z,961.13
2016-12-26T10:02:49.226Z,961.06
2016-12-26T10:03:49.212Z,961.06
2016-12-26T10:04:49.202Z,961.07
2016-12-26T10:05:49.191Z,961.04
2016-12-26T10:06:49.179Z,960.98
2016-12-26T10:07:49.166Z,960.97
2016-12-26T10:08:49.156Z,961.03
2016-12-26T10:09:49.145Z,961.07
2016-12-26T10:10:49.132Z,961.01
2016-12-26T10:11:49.122Z,961.01
2016-12-26T10:12:49.110Z,961
2016-12-26T10:13:49.097Z,961.03
2016-12-26T10:14:49.085Z,960.98
2016-12-26T10:15:49.074Z,961.03
2016-12-26T10:16:49.066Z,961.05
2016-12-26T10:17:49.051Z,961.12
2016-12-26T10:18:49.040Z,961.14
2016-12-26T10:19:49.029Z,961.08
2016-12-26T10:20:49.017Z,961.09
2016-12-26T10:21:49.005Z,961.09
2016-12-26T10:22:48.995Z,961.06
2016-12-26T10:23:48.982Z,961.04
2016-12-26T10:24:48.971Z,961.01
2016-12-26T10:25:48.958Z,961.01
2016-12-26T10:26:48.950Z,961.01
2016-12-26T10:27:48.936Z,960.96
2016-12-26T10:28:48.925Z,960.95
2016-12-26T10:29:48.914Z,960.95
2016-12-26T10:30:48.901Z,960.94
2016-12-26T10:31:48.891Z,960.89
2016-12-26T10:32:48.878Z,960.8
2016-12-26T10:33:48.868Z,960.82
2016-12-26T10:34:48.855Z,960.86
2016-12-26T10:35:48.844Z,960.74
2016-12-26T10:36:48.833Z,960.8
2016-12-26T10:37:48.821Z,960.69
2016-12-26T10:38:48.810Z,960.84
2016-12-26T10:39:48.798Z,960.8
2016-12-26T10:40:48.786Z,960.83
2016-12-26T10:41:48.774Z,960.8
2016-12-26T10:42:48.764Z,960.77
2016-12-26T10:43:48.752Z,960.78
2016-12-26T10:44:48.739Z,960.77
2016-12-26T10:45:48.729Z,960.76
2016-12-26T10:46:48.718Z,960.69
2016-12-26T10:47:48.706Z,960.67
2016-12-26T10:48:48.707Z,960.69
2016-12-26T10:49:48.686Z,960.7
2016-12-26T10:50:48.672Z,960.66
2016-12-26T10:51:48.658Z,960.73
2016-12-26T10:52:48.649Z,960.58
2016-12-26T10:53:48.638Z,960.6
2016-12-26T10:54:48.624Z,960.65
2016-12-26T10:55:48.616Z,960.58
2016-12-26T10:56:48.603Z,960.64
2016-12-26T10:57:48.592Z,960.56
2016-12-26T10:58:48.578Z,960.61
2016-12-26T10:59:48.568Z,960.54
2016-12-26T11:00:48.557Z,960.54
2016-12-26T11:01:48.544Z,960.47
2016-12-26T11:02:48.533Z,960.57
2016-12-26T11:03:48.522Z,960.56
2016-12-26T11:04:48.510Z,960.56
2016-12-26T11:05:48.498Z,960.54
2016-12-26T11:06:48.487Z,960.58
2016-12-26T11:07:48.475Z,960.65
2016-12-26T11:08:48.465Z,960.59
2016-12-26T11:09:48.454Z,960.64
2016-12-26T11:10:48.442Z,960.54
2016-12-26T11:11:48.429Z,960.56
2016-12-26T11:12:48.417Z,960.56
2016-12-26T11:13:48.407Z,960.55
2016-12-26T11:14:48.396Z,960.55
2016-12-26T11:15:48.384Z,960.45
2016-12-26T11:16:48.371Z,960.39
2016-12-26T11:17:48.364Z,960.37
2016-12-26T11:18:48.348Z,960.32
2016-12-26T11:19:48.335Z,960.34
2016-12-26T11:20:48.326Z,960.32
2016-12-26T11:21:48.314Z,960.29
2016-12-26T11:22:48.303Z,960.29
2016-12-26T11:23:48.290Z,960.24
2016-12-26T11:24:48.279Z,960.25
2016-12-26T11:25:48.267Z,960.19
2016-12-26T11:26:48.261Z,960.16
2016-12-26T11:27:48.245Z,960.11
2016-12-26T11:28:48.238Z,960.14
2016-12-26T11:29:48.221Z,960.19
2016-12-26T11:30:48.209Z,960.15
2016-12-26T11:31:48.200Z,960.16
2016-12-26T11:32:48.187Z,960.08
2016-12-26T11:33:48.177Z,960.14
2016-12-26T11:34:48.167Z,960.06
2016-12-26T11:35:48.151Z,960.09
2016-12-26T11:36:48.141Z,960.07
2016-12-26T11:37:48.130Z,960.02
2016-12-26T11:38:48.116Z,960
2016-12-26T11:39:48.108Z,959.95
2016-12-26T11:40:48.098Z,959.99
2016-12-26T11:41:48.084Z,959.95
2016-12-26T11:42:48.073Z,959.96
2016-12-26T11:43:48.059Z,960
2016-12-26T11:44:48.049Z,959.9
2016-12-26T11:45:48.036Z,959.92
2016-12-26T11:46:48.025Z,959.79
2016-12-26T11:47:48.015Z,959.82
2016-12-26T11:48:48.004Z,959.91
2016-12-26T11:49:47.990Z,959.83
2016-12-26T11:50:47.980Z,959.82
2016-12-26T11:51:47.970Z,959.82
2016-12-26T11:52:47.957Z,959.89
2016-12-26T11:53:47.945Z,959.85
2016-12-26T11:54:47.933Z,959.81
2016-12-26T11:55:47.924Z,959.92
2016-12-26T11:56:47.910Z,959.92
2016-12-26T11:57:47.899Z,959.99
2016-12-26T11:58:47.888Z,959.98
2016-12-26T11:59:47.877Z,959.98
2016-12-26T12:00:47.864Z,959.89
2016-12-26T12:01:47.854Z,959.93
2016-12-26T12:02:47.841Z,959.92
2016-12-26T12:03:47.832Z,959.89
2016-12-26T12:04:47.817Z,959.98
2016-12-26T12:05:47.807Z,959.94
2016-12-26T12:06:47.795Z,959.91
2016-12-26T12:07:47.783Z,959.91
2016-12-26T12:08:47.772Z,959.95
2016-12-26T12:09:47.759Z,959.97
2016-12-26T12:10:47.749Z,959.93
2016-12-26T12:11:47.738Z,959.89
2016-12-26T12:12:47.725Z,959.89
2016-12-26T12:13:47.714Z,959.96
2016-12-26T12:14:47.701Z,959.9
2016-12-26T12:15:47.689Z,959.88
2016-12-26T12:16:47.677Z,959.87
2016-12-26T12:17:47.666Z,959.91
2016-12-26T12:18:47.656Z,959.92
2016-12-26T12:19:47.644Z,959.83
2016-12-26T12:20:47.631Z,959.82
2016-12-26T12:21:47.621Z,959.83
2016-12-26T12:22:47.610Z,959.9
2016-12-26T12:23:47.597Z,959.84
2016-12-26T12:24:47.585Z,959.93
2016-12-26T12:25:47.573Z,959.9
2016-12-26T12:26:47.562Z,959.87
2016-12-26T12:27:47.550Z,960.03
2016-12-26T12:28:47.538Z,960
2016-12-26T12:29:47.527Z,959.94
2016-12-26T12:30:47.515Z,959.96
2016-12-26T12:31:47.513Z,959.98